NOAA Weather Radio

Lightning Safety

Turn Around Don't Drown
Storm Ready
SkyWarn
WACO REGIONAL AIRPORT, TX, United States (KACT) 31-36N 97-13W 151M
Mar 02, 2015 - 09:51 PM EST / 2015.03.03 0251 UTC
Wind: from the NE (040 degrees) at 5 MPH (4 KT):0
Visibility: 1/4 mile(s):0
Sky conditions: overcast
Weather: mist
Temperature: 39.9 F (4.4 C)
Dew Point: 39.0 F (3.9 C)
Relative Humidity: 96%
Pressure (altimeter): 30.2 in. Hg (1022 hPa)
Pressure tendency: 0.00 inches (0.1 hPa) lower than three hours ago
ob: KACT 030251Z 04004KT 1/4SM BR OVC002 04/04 A3020 RMK AO2 SFC VIS 3/4 SLP226 T00440039 57001
cycle: 3